Time;durP1;ratioP1;P1;durP2;ratioP2;P2;SDS_P1;SDS_P2;PMS_P1;PMS_P2;Temp;Humidity;BMP_temperature;BMP_pressure;BME280_temperature;BME280_humidity;BME280_pressure;Samples;Min_cycle;Max_cycle;Signal;HPM_P1;HPM_P2
2023/10/01 00:01:33;;;;;;;4.97;2.08;;;20.40;90.80;;;;;;5072838;28;20028;-81
2023/10/01 00:03:58;;;;;;;5.60;2.78;;;20.30;90.80;;;;;;5072851;28;20024;-81
2023/10/01 00:06:25;;;;;;;5.00;2.40;;;20.30;90.70;;;;;;5072729;28;20032;-78
2023/10/01 00:08:50;;;;;;;4.93;2.40;;;20.40;90.70;;;;;;5072864;28;20715;-80
2023/10/01 00:11:16;;;;;;;3.90;2.08;;;20.30;90.70;;;;;;5072723;28;20024;-81
2023/10/01 00:13:41;;;;;;;4.22;2.20;;;20.30;90.60;;;;;;5072602;28;20025;-80
2023/10/01 00:16:07;;;;;;;5.03;2.30;;;20.30;90.70;;;;;;5073895;28;20070;-80
2023/10/01 00:18:32;;;;;;;5.15;2.47;;;20.30;90.70;;;;;;5072361;28;20074;-79
2023/10/01 00:20:58;;;;;;;5.35;2.42;;;20.30;90.70;;;;;;5073769;28;20098;-80
2023/10/01 00:23:23;;;;;;;5.40;2.70;;;20.30;90.90;;;;;;5072511;28;20063;-80
2023/10/01 00:25:49;;;;;;;5.30;2.53;;;20.30;90.60;;;;;;5072373;28;20426;-80
2023/10/01 00:28:15;;;;;;;5.90;2.70;;;20.30;90.60;;;;;;5072149;28;20055;-81
2023/10/01 00:30:41;;;;;;;5.05;2.63;;;20.30;90.60;;;;;;5072298;28;20077;-80
2023/10/01 00:33:07;;;;;;;5.20;2.85;;;20.30;90.70;;;;;;5073457;28;20021;-81
2023/10/01 00:35:33;;;;;;;5.07;2.50;;;20.30;90.70;;;;;;5072099;28;20107;-81
2023/10/01 00:37:58;;;;;;;5.97;2.80;;;20.30;90.70;;;;;;5073094;28;20067;-80
2023/10/01 00:40:24;;;;;;;5.18;2.60;;;20.30;90.60;;;;;;5072185;28;20032;-81
2023/10/01 00:42:49;;;;;;;4.35;2.40;;;20.30;90.60;;;;;;5072002;28;20024;-79
2023/10/01 00:45:15;;;;;;;5.30;2.33;;;20.30;90.60;;;;;;5073137;28;20123;-80
2023/10/01 00:47:44;;;;;;;4.97;2.25;;;20.30;90.80;;;;;;5071905;28;20016;-80
2023/10/01 00:50:15;;;;;;;4.47;2.38;;;20.30;90.80;;;;;;5071932;28;20025;-79
2023/10/01 00:52:42;;;;;;;;;;;20.30;90.80;;;;;;5072354;28;20024;-80
2023/10/01 00:55:08;;;;;;;5.00;2.50;;;20.30;91.00;;;;;;5071831;28;19911;-80
2023/10/01 00:57:37;;;;;;;5.85;2.53;;;20.30;90.80;;;;;;5071522;28;20025;-81
2023/10/01 01:00:05;;;;;;;5.20;2.40;;;20.30;90.80;;;;;;5071811;28;20119;-80
2023/10/01 01:02:37;;;;;;;4.85;2.60;;;20.30;90.80;;;;;;5071653;28;20039;-80
2023/10/01 01:05:19;;;;;;;5.68;2.95;;;20.30;90.80;;;;;;5071619;28;20552;-80
2023/10/01 01:07:47;;;;;;;4.55;2.38;;;20.30;90.70;;;;;;5071360;28;20029;-80
2023/10/01 01:10:16;;;;;;;5.00;2.78;;;20.30;90.70;;;;;;5071565;28;20021;-80
2023/10/01 01:12:45;;;;;;;4.65;2.28;;;20.30;90.70;;;;;;5072877;28;20047;-80
2023/10/01 01:15:12;;;;;;;5.13;2.60;;;20.30;90.70;;;;;;5071564;28;20031;-81
2023/10/01 01:17:38;;;;;;;5.57;2.70;;;20.30;90.70;;;;;;5071246;28;20032;-81
2023/10/01 01:20:09;;;;;;;4.55;2.75;;;20.20;90.70;;;;;;5072484;28;20071;-80
2023/10/01 01:22:39;;;;;;;5.93;2.50;;;20.20;90.70;;;;;;5071692;28;20025;-80
2023/10/01 01:25:10;;;;;;;4.68;2.63;;;20.20;90.70;;;;;;5071422;28;20035;-81
2023/10/01 01:27:40;;;;;;;5.63;2.85;;;20.20;90.70;;;;;;5071226;28;20033;-79
2023/10/01 01:30:09;;;;;;;5.03;2.63;;;20.20;90.60;;;;;;5071465;28;20063;-80
2023/10/01 01:32:36;;;;;;;5.30;2.55;;;20.20;90.60;;;;;;5071364;28;20017;-81
2023/10/01 01:35:05;;;;;;;5.38;2.72;;;20.20;90.60;;;;;;5072586;28;20016;-81
2023/10/01 01:37:36;;;;;;;4.68;2.50;;;20.20;90.60;;;;;;5072211;28;20020;-80
2023/10/01 01:40:09;;;;;;;;;;;20.20;90.60;;;;;;5071729;28;20048;-80
2023/10/01 01:42:34;;;;;;;4.78;2.58;;;20.20;90.80;;;;;;5071267;28;20269;-81
2023/10/01 01:47:45;;;;;;;4.07;2.38;;;20.20;90.80;;;;;;5071962;28;20472;-80
2023/10/01 01:50:26;;;;;;;4.47;2.30;;;20.20;90.80;;;;;;5071179;28;20107;-81
2023/10/01 01:52:53;;;;;;;4.45;2.67;;;20.20;90.80;;;;;;5071206;28;20031;-81
2023/10/01 01:55:23;;;;;;;4.93;2.50;;;20.30;90.80;;;;;;5071101;28;20449;-81
2023/10/01 01:58:11;;;;;;;4.32;2.45;;;20.20;90.70;;;;;;5072185;28;20025;-81
2023/10/01 02:00:38;;;;;;;4.22;2.20;;;20.30;90.70;;;;;;5071589;28;20507;-80
2023/10/01 02:03:14;;;;;;;4.57;2.50;;;20.20;90.60;;;;;;5071075;28;20033;-80
2023/10/01 02:05:41;;;;;;;7.75;2.70;;;20.20;90.60;;;;;;5070975;28;20385;-80
2023/10/01 02:08:23;;;;;;;4.75;2.45;;;20.20;90.70;;;;;;5072034;28;20465;-81
2023/10/01 02:10:53;;;;;;;4.38;2.42;;;20.20;90.70;;;;;;5071007;28;20090;-81
2023/10/01 02:13:18;;;;;;;4.00;2.15;;;20.20;90.70;;;;;;5071048;28;20017;-80
2023/10/01 02:15:45;;;;;;;4.35;2.05;;;20.20;90.70;;;;;;5070888;28;20028;-79
2023/10/01 02:18:16;;;;;;;4.93;2.53;;;20.20;90.70;;;;;;5070598;28;20040;-79
2023/10/01 02:20:44;;;;;;;5.60;2.67;;;20.20;90.70;;;;;;5070948;28;20111;-80
2023/10/01 02:23:12;;;;;;;4.28;2.42;;;20.10;90.70;;;;;;5070924;28;20140;-81
2023/10/01 02:25:45;;;;;;;5.55;2.55;;;20.10;90.60;;;;;;5071927;28;20081;-81
2023/10/01 02:28:14;;;;;;;3.92;2.28;;;20.10;90.60;;;;;;5070633;28;20060;-81
2023/10/01 02:30:41;;;;;;;5.57;2.70;;;20.10;90.70;;;;;;5070871;28;20017;-80
2023/10/01 02:33:18;;;;;;;4.50;2.47;;;20.10;90.60;;;;;;5073985;28;20025;-80
2023/10/01 02:35:55;;;;;;;4.82;2.70;;;20.10;90.60;;;;;;5074835;28;20056;-80
2023/10/01 02:38:36;;;;;;;5.00;2.60;;;20.10;90.70;;;;;;5074228;28;20048;-80
2023/10/01 02:41:03;;;;;;;5.60;2.90;;;20.10;90.70;;;;;;5074443;28;20035;-81
2023/10/01 02:43:36;;;;;;;4.40;2.40;;;20.20;90.80;;;;;;5074316;28;20484;-80
2023/10/01 02:46:04;;;;;;;5.25;2.50;;;20.20;90.80;;;;;;5074277;28;20493;-81
2023/10/01 02:48:30;;;;;;;5.68;2.80;;;20.20;90.80;;;;;;5073950;28;20023;-81
2023/10/01 02:50:56;;;;;;;4.75;2.40;;;20.20;90.80;;;;;;5072557;28;20032;-80
2023/10/01 02:53:23;;;;;;;4.57;2.28;;;20.20;90.70;;;;;;5073720;28;20028;-80
2023/10/01 02:55:51;;;;;;;4.32;2.28;;;20.20;90.70;;;;;;5075250;28;20030;-80
2023/10/01 02:58:27;;;;;;;5.00;2.67;;;20.20;90.70;;;;;;5074006;28;20397;-80
2023/10/01 03:00:53;;;;;;;4.65;2.50;;;20.20;90.70;;;;;;5074093;28;20025;-81
2023/10/01 03:03:31;;;;;;;4.88;2.55;;;20.20;90.80;;;;;;5074133;28;20035;-80
2023/10/01 03:05:56;;;;;;;5.95;2.60;;;20.10;90.70;;;;;;5075225;28;20031;-79
2023/10/01 03:11:08;;;;;;;4.70;2.35;;;20.10;90.60;;;;;;5075499;28;20059;-80
2023/10/01 03:13:36;;;;;;;4.63;2.50;;;20.10;90.60;;;;;;5073894;28;20103;-80
2023/10/01 03:18:48;;;;;;;6.63;2.63;;;20.10;90.60;;;;;;5074953;28;20082;-81
2023/10/01 03:22:13;;;;;;;5.45;2.70;;;20.10;90.60;;;;;;5073727;28;20028;-79
2023/10/01 03:24:03;;;;;;;4.35;2.35;;;20.10;90.70;;;;;;5074706;28;20078;-79
2023/10/01 03:26:33;;;;;;;4.55;2.55;;;20.10;90.60;;;;;;5073287;28;20078;-78
2023/10/01 03:31:46;;;;;;;4.80;2.47;;;20.10;90.70;;;;;;5074750;28;20558;-80
2023/10/01 03:34:30;;;;;;;4.43;2.40;;;20.10;90.80;;;;;;5073333;28;20051;-79
2023/10/01 03:37:00;;;;;;;4.50;2.30;;;20.10;90.70;;;;;;5073123;28;20017;-81
2023/10/01 03:39:26;;;;;;;5.78;2.70;;;20.10;90.80;;;;;;5074948;28;20388;-80
2023/10/01 03:42:17;;;;;;;4.75;2.40;;;20.10;90.80;;;;;;5074554;28;20095;-80
2023/10/01 03:47:29;;;;;;;4.95;2.47;;;20.20;90.70;;;;;;5074541;28;20028;-80
2023/10/01 03:49:55;;;;;;;4.47;2.20;;;20.10;90.70;;;;;;5073304;28;20115;-79
2023/10/01 03:52:21;;;;;;;4.22;2.40;;;20.10;90.60;;;;;;5073047;28;20104;-79
2023/10/01 03:54:59;;;;;;;5.93;2.78;;;20.10;90.60;;;;;;5074299;28;20051;-82
2023/10/01 03:57:29;;;;;;;4.35;2.28;;;20.10;90.60;;;;;;5072944;28;20024;-79
2023/10/01 03:59:57;;;;;;;4.38;2.58;;;20.10;90.60;;;;;;5072936;28;20082;-79
2023/10/01 04:05:28;;;;;;;4.85;2.40;;;20.10;90.60;;;;;;5074271;28;20036;-80
2023/10/01 04:07:54;;;;;;;4.97;2.50;;;20.10;90.70;;;;;;5072576;28;20488;-81
2023/10/01 04:12:54;;;;;;;5.43;2.50;;;20.10;90.60;;;;;;5074251;28;20021;-80
2023/10/01 04:15:27;;;;;;;4.40;2.30;;;20.10;90.70;;;;;;5073824;28;20017;-79
2023/10/01 04:20:49;;;;;;;3.95;2.10;;;20.00;90.70;;;;;;5073813;28;20020;-81
2023/10/01 04:23:54;;;;;;;5.20;2.70;;;20.00;90.70;;;;;;5072486;28;20024;-81
2023/10/01 04:26:16;;;;;;;5.85;2.38;;;20.00;90.70;;;;;;5071423;28;20040;-79
2023/10/01 04:28:44;;;;;;;3.90;2.30;;;20.00;90.70;;;;;;5072253;28;20415;-80
2023/10/01 04:31:14;;;;;;;3.88;2.10;;;20.00;90.80;;;;;;5072406;28;20027;-80
2023/10/01 04:33:42;;;;;;;4.50;2.37;;;20.00;90.80;;;;;;5073526;28;20028;-80
2023/10/01 04:36:11;;;;;;;4.00;2.15;;;20.00;90.80;;;;;;5072104;28;20025;-80
2023/10/01 04:38:41;;;;;;;4.47;2.50;;;20.00;90.80;;;;;;5073163;28;20029;-79
2023/10/01 04:41:11;;;;;;;4.18;2.17;;;20.10;90.80;;;;;;5072141;28;20074;-80
2023/10/01 04:43:42;;;;;;;4.55;2.47;;;20.10;90.70;;;;;;5072070;28;20036;-81
2023/10/01 04:46:10;;;;;;;4.38;2.47;;;20.10;90.70;;;;;;5073140;28;20059;-79
2023/10/01 04:48:39;;;;;;;4.97;2.35;;;20.10;90.60;;;;;;5072940;28;20028;-79
2023/10/01 04:51:07;;;;;;;3.83;2.20;;;20.10;90.60;;;;;;5072432;28;20428;-78
2023/10/01 04:53:34;;;;;;;4.60;2.45;;;20.10;90.60;;;;;;5072618;28;20017;-80
2023/10/01 04:56:06;;;;;;;4.35;2.45;;;20.00;90.50;;;;;;5071458;28;20028;-79
2023/10/01 04:58:41;;;;;;;4.60;2.28;;;20.00;90.50;;;;;;5071624;28;20111;-78
2023/10/01 05:01:11;;;;;;;4.68;2.60;;;20.00;90.60;;;;;;5072066;28;20035;-80
2023/10/01 05:03:38;;;;;;;4.63;2.25;;;20.00;90.60;;;;;;5071861;28;20447;-80
2023/10/01 05:06:09;;;;;;;4.55;2.60;;;20.00;90.60;;;;;;5070424;28;20036;-80
2023/10/01 05:08:41;;;;;;;4.82;2.60;;;20.00;90.90;;;;;;5061244;28;20025;-79
2023/10/01 05:11:11;;;;;;;3.78;2.10;;;20.00;90.70;;;;;;5068528;28;20058;-80
2023/10/01 05:13:44;;;;;;;5.10;2.33;;;20.00;90.70;;;;;;5071589;28;20496;-79
2023/10/01 05:16:12;;;;;;;4.50;2.30;;;20.00;90.70;;;;;;5071627;28;20495;-79
2023/10/01 05:18:39;;;;;;;4.35;2.20;;;20.00;90.70;;;;;;5072297;28;20115;-80
2023/10/01 05:21:12;;;;;;;4.22;2.45;;;20.00;90.70;;;;;;5071626;28;20051;-80
2023/10/01 05:23:39;;;;;;;4.40;2.40;;;20.00;90.80;;;;;;5071554;28;20028;-79
2023/10/01 05:26:08;;;;;;;4.15;2.28;;;20.00;90.80;;;;;;5071435;28;20162;-80
2023/10/01 05:28:36;;;;;;;4.80;2.42;;;20.00;90.80;;;;;;5071218;28;20016;-80
2023/10/01 05:31:06;;;;;;;4.47;2.33;;;20.00;90.80;;;;;;5071350;28;20384;-80
2023/10/01 05:33:35;;;;;;;4.60;2.28;;;20.00;90.80;;;;;;5071714;28;20383;-80
2023/10/01 05:36:05;;;;;;;4.78;2.25;;;20.00;90.70;;;;;;5071376;28;20036;-80
2023/10/01 05:38:34;;;;;;;3.97;2.45;;;20.00;90.70;;;;;;5071185;28;20119;-81
2023/10/01 05:41:04;;;;;;;3.95;2.40;;;20.00;90.70;;;;;;5071360;28;20031;-79
2023/10/01 05:43:37;;;;;;;4.43;2.55;;;20.00;90.70;;;;;;5071203;28;20021;-81
2023/10/01 05:46:08;;;;;;;5.10;2.40;;;20.10;90.60;;;;;;5071137;28;20025;-79
2023/10/01 05:48:35;;;;;;;4.00;2.17;;;20.00;90.50;;;;;;5071055;28;20032;-80
2023/10/01 05:51:02;;;;;;;5.22;2.53;;;20.00;90.50;;;;;;5072449;28;20021;-79
2023/10/01 05:53:29;;;;;;;4.45;2.40;;;20.00;90.50;;;;;;5070311;28;20031;-82
2023/10/01 05:55:54;;;;;;;4.07;2.28;;;20.00;90.60;;;;;;5060895;28;20025;-84
2023/10/01 05:58:21;;;;;;;4.82;2.55;;;20.00;90.60;;;;;;5047818;28;20437;-80
2023/10/01 06:00:56;;;;;;;5.35;2.55;;;20.00;90.60;;;;;;5048623;28;20044;-84
2023/10/01 06:03:25;;;;;;;4.35;2.30;;;20.00;90.60;;;;;;5061644;28;20402;-81
2023/10/01 06:05:58;;;;;;;4.95;2.33;;;20.00;90.70;;;;;;5068086;28;20060;-81
2023/10/01 06:08:36;;;;;;;5.30;2.65;;;20.00;90.70;;;;;;5071915;28;20097;-81
2023/10/01 06:25:16;;;;;;;;;;;;;;;;;;;;;
2023/10/01 06:35:29;;;;;;;4.03;2.40;;;20.10;90.70;;;;;;5050731;28;20036;-81
2023/10/01 06:38:34;;;;;;;4.05;2.38;;;20.00;90.70;;;;;;5034905;28;20063;-80
2023/10/01 06:47:51;;;;;;;4.55;2.40;;;20.00;90.40;;;;;;5053128;22;20434;-81
2023/10/01 06:50:16;;;;;;;4.80;2.50;;;20.00;90.40;;;;;;5011802;28;20029;-80
2023/10/01 06:52:42;;;;;;;5.15;2.28;;;20.00;90.40;;;;;;5013154;28;20032;-81
2023/10/01 06:55:25;;;;;;;5.70;2.40;;;20.00;90.50;;;;;;5011954;28;20053;-81
2023/10/01 06:57:51;;;;;;;3.80;2.10;;;20.00;90.50;;;;;;5012727;28;20062;-85
2023/10/01 07:00:21;;;;;;;4.60;2.40;;;20.00;90.50;;;;;;5013281;28;20069;-84
2023/10/01 07:02:49;;;;;;;5.57;2.60;;;19.90;90.50;;;;;;5013523;28;20149;-81
2023/10/01 07:05:20;;;;;;;4.38;2.28;;;20.00;90.60;;;;;;5010181;28;20049;-81
2023/10/01 07:07:48;;;;;;;4.57;2.30;;;20.00;90.60;;;;;;5012553;28;20014;-81
2023/10/01 07:10:15;;;;;;;3.97;2.40;;;20.00;90.60;;;;;;4997123;28;20518;-81
2023/10/01 07:12:53;;;;;;;4.25;2.33;;;19.90;90.60;;;;;;4993702;28;20027;-83
2023/10/01 07:15:19;;;;;;;4.45;2.15;;;20.00;90.90;;;;;;4993507;28;20034;-82
2023/10/01 07:17:47;;;;;;;5.38;2.75;;;19.90;90.70;;;;;;4992466;28;20038;-80
2023/10/01 07:20:19;;;;;;;4.90;2.28;;;19.90;90.70;;;;;;4993123;28;20031;-83
2023/10/01 07:22:44;;;;;;;4.28;2.38;;;19.90;90.70;;;;;;4993300;28;20030;-81
2023/10/01 07:25:28;;;;;;;4.47;2.40;;;19.90;90.80;;;;;;4993060;28;20070;-81
2023/10/01 07:27:55;;;;;;;5.05;2.53;;;20.00;90.70;;;;;;4997040;28;20355;-80
2023/10/01 07:30:39;;;;;;;4.05;2.40;;;20.10;90.60;;;;;;5010336;28;20029;-82
2023/10/01 07:33:09;;;;;;;4.05;2.15;;;20.00;90.60;;;;;;5008927;28;20474;-80
2023/10/01 07:35:39;;;;;;;4.68;2.35;;;20.00;90.50;;;;;;5009980;28;20041;-84
2023/10/01 07:38:13;;;;;;;3.90;2.17;;;20.00;90.40;;;;;;5062741;23;20061;-83
2023/10/01 07:41:27;;;;;;;4.40;2.22;;;20.80;90.60;;;;;;5073674;28;20028;-86
2023/10/01 07:45:05;;;;;;;3.80;2.15;;;20.00;90.40;;;;;;5075375;28;20032;-84
2023/10/01 07:53:32;;;;;;;4.53;2.42;;;20.00;90.50;;;;;;5033971;28;20049;-84
2023/10/01 07:56:23;;;;;;;4.90;2.05;;;19.80;90.50;;;;;;5005839;28;20087;-81
2023/10/01 07:59:38;;;;;;;4.15;2.33;;;19.90;90.50;;;;;;5047754;28;20059;-82
2023/10/01 08:02:28;;;;;;;5.45;2.35;;;20.00;90.60;;;;;;5037323;28;20392;-81
2023/10/01 08:05:21;;;;;;;5.28;2.38;;;20.40;90.70;;;;;;5034696;28;20044;-80
2023/10/01 08:07:52;;;;;;;4.50;2.20;;;19.90;90.60;;;;;;5034597;28;20021;-82
2023/10/01 08:10:18;;;;;;;4.45;2.15;;;19.90;90.60;;;;;;5029015;28;20077;-80
2023/10/01 08:16:02;;;;;;;4.28;2.15;;;19.90;90.70;;;;;;5052592;28;20039;-80
2023/10/01 08:18:44;;;;;;;4.70;2.35;;;19.90;90.60;;;;;;5033343;28;20566;-81
2023/10/01 08:24:33;;;;;;;4.47;2.10;;;20.00;90.50;;;;;;5042259;28;20039;-81
2023/10/01 08:32:38;;;;;;;4.68;2.08;;;20.80;90.60;;;;;;5039250;28;20032;-82
2023/10/01 08:35:06;;;;;;;5.10;2.17;;;20.00;90.40;;;;;;5033690;28;20029;-80
2023/10/01 08:37:49;;;;;;;5.95;2.30;;;20.00;90.40;;;;;;5051032;28;20021;-80
2023/10/01 08:40:17;;;;;;;3.95;2.05;;;20.00;90.40;;;;;;5051357;28;20095;-80
2023/10/01 08:42:47;;;;;;;4.53;2.22;;;20.00;90.40;;;;;;5033039;28;20032;-80
2023/10/01 08:45:17;;;;;;;4.25;2.30;;;19.60;90.40;;;;;;5033215;28;20032;-80
2023/10/01 08:47:59;;;;;;;4.43;2.30;;;20.10;90.50;;;;;;5033965;28;20393;-83
2023/10/01 08:52:52;;;;;;;6.82;2.97;;;19.80;90.30;;;;;;5051763;28;20024;-80
2023/10/01 08:58:52;;;;;;;6.28;2.70;;;20.10;90.00;;;;;;5034863;28;20048;-81
2023/10/01 09:01:20;;;;;;;7.93;3.00;;;20.00;89.90;;;;;;5046731;28;20107;-82
2023/10/01 09:14:21;;;;;;;8.43;2.80;;;20.10;90.20;;;;;;5041096;28;20040;-81
2023/10/01 09:17:56;;;;;;;6.63;2.60;;;20.20;91.50;;;;;;5051847;28;20496;-81
2023/10/01 09:24:11;;;;;;;;;;;20.50;91.40;;;;;;5010675;28;20107;-82
2023/10/01 09:26:42;;;;;;;6.30;2.80;;;20.70;91.40;;;;;;5027037;28;19916;-80
2023/10/01 09:29:26;;;;;;;8.67;2.60;;;20.80;91.50;;;;;;5048876;28;20036;-79
2023/10/01 09:31:59;;;;;;;7.60;2.60;;;20.80;91.60;;;;;;5051953;28;20027;-82
2023/10/01 09:34:53;;;;;;;6.97;2.60;;;20.90;91.70;;;;;;5052111;28;20519;-82
2023/10/01 09:37:52;;;;;;;6.70;2.50;;;21.00;91.90;;;;;;5032581;28;20036;-81
2023/10/01 09:43:58;;;;;;;6.45;2.83;;;21.30;92.60;;;;;;5030547;28;20053;-83
2023/10/01 09:46:37;;;;;;;7.00;2.38;;;21.00;92.50;;;;;;5009382;28;20049;-82
2023/10/01 09:49:21;;;;;;;8.93;2.70;;;21.40;92.80;;;;;;5012927;28;20124;-83
2023/10/01 09:52:30;;;;;;;6.78;2.58;;;21.20;92.90;;;;;;5009563;28;20033;-85
2023/10/01 09:58:27;;;;;;;9.32;2.70;;;21.10;93.20;;;;;;5277727;22;20108;-83
2023/10/01 10:01:01;;;;;;;9.63;2.83;;;21.10;93.10;;;;;;5074808;28;20020;-83
2023/10/01 10:03:42;;;;;;;8.90;3.10;;;21.10;93.60;;;;;;5074645;28;20395;-84
2023/10/01 10:06:09;;;;;;;8.90;3.60;;;21.20;93.60;;;;;;5074916;28;20031;-82
2023/10/01 10:08:37;;;;;;;7.80;3.05;;;21.20;93.50;;;;;;5092723;28;20610;-83
2023/10/01 10:11:08;;;;;;;8.77;2.92;;;21.20;93.40;;;;;;5074996;28;20169;-82
2023/10/01 10:13:57;;;;;;;9.25;2.75;;;21.30;93.50;;;;;;5074813;28;20020;-82
2023/10/01 10:16:32;;;;;;;7.83;2.83;;;21.30;93.50;;;;;;5092662;28;20157;-83
2023/10/01 10:19:05;;;;;;;9.77;3.67;;;21.40;93.40;;;;;;5074693;28;20024;-82
2023/10/01 10:24:30;;;;;;;11.25;3.42;;;21.30;93.50;;;;;;5093169;28;20033;-82
2023/10/01 10:27:07;;;;;;;11.02;3.70;;;21.30;93.60;;;;;;5074228;28;20445;-82
2023/10/01 10:29:56;;;;;;;11.38;3.75;;;21.40;93.60;;;;;;5062043;28;20063;-83
2023/10/01 10:32:24;;;;;;;10.95;3.85;;;21.50;93.80;;;;;;5054176;28;20111;-82
2023/10/01 10:35:14;;;;;;;14.43;4.07;;;21.40;93.80;;;;;;5072031;28;20028;-84
2023/10/01 10:37:44;;;;;;;12.73;4.60;;;21.40;93.50;;;;;;5071911;28;20047;-84
2023/10/01 10:42:58;;;;;;;15.93;4.32;;;21.40;93.60;;;;;;5072387;28;20477;-84
2023/10/01 10:45:23;;;;;;;12.70;3.85;;;21.50;93.40;;;;;;5054138;28;20059;-84
2023/10/01 10:48:03;;;;;;;15.32;4.65;;;21.50;93.20;;;;;;5053861;28;20049;-84
2023/10/01 10:50:48;;;;;;;14.13;4.68;;;21.50;93.50;;;;;;5054241;28;20063;-84
2023/10/01 10:53:22;;;;;;;15.88;4.82;;;21.60;93.40;;;;;;5055798;28;20029;-84
2023/10/01 10:56:02;;;;;;;14.60;4.80;;;21.60;93.30;;;;;;5057662;28;20021;-84
2023/10/01 10:58:29;;;;;;;;;;;21.70;93.20;;;;;;5075711;28;20036;-84
2023/10/01 11:00:56;;;;;;;14.45;5.32;;;21.70;93.20;;;;;;5091251;28;19939;-84
2023/10/01 11:03:40;;;;;;;19.25;5.10;;;21.70;93.10;;;;;;5075370;28;20480;-84
2023/10/01 11:06:15;;;;;;;15.38;5.38;;;21.70;92.90;;;;;;5075160;28;20063;-84
2023/10/01 11:08:50;;;;;;;17.20;4.85;;;21.70;93.20;;;;;;5075296;28;20066;-84
2023/10/01 11:11:29;;;;;;;16.42;5.50;;;21.80;93.00;;;;;;5075358;28;20024;-83
2023/10/01 11:14:01;;;;;;;17.15;5.85;;;21.80;92.90;;;;;;5057575;28;20461;-82
2023/10/01 11:16:36;;;;;;;19.73;6.03;;;21.70;92.80;;;;;;5075270;28;20396;-83
2023/10/01 11:19:16;;;;;;;19.23;5.95;;;21.80;93.00;;;;;;5076307;28;20021;-84
2023/10/01 11:22:03;;;;;;;18.23;5.63;;;21.80;93.10;;;;;;5057174;28;20035;-84
2023/10/01 11:24:34;;;;;;;19.40;5.57;;;21.70;92.90;;;;;;5040667;28;20788;-84
2023/10/01 11:30:12;;;;;;;18.55;5.97;;;21.80;93.20;;;;;;5075209;28;20020;-84
2023/10/01 11:33:02;;;;;;;19.23;5.82;;;21.80;93.00;;;;;;5056846;28;20483;-83
2023/10/01 11:35:32;;;;;;;16.70;5.93;;;21.80;92.80;;;;;;5075082;28;20024;-84
2023/10/01 11:38:10;;;;;;;17.33;5.60;;;21.70;92.70;;;;;;5074870;28;20633;-84
2023/10/01 11:41:38;;;;;;;17.48;5.72;;;21.70;92.70;;;;;;5074984;28;20414;-83
2023/10/01 11:43:36;;;;;;;15.93;5.63;;;21.60;92.70;;;;;;5066435;28;20112;-84
2023/10/01 11:46:23;;;;;;;15.82;5.10;;;21.60;92.80;;;;;;5074773;28;20035;-83
2023/10/01 11:48:56;;;;;;;15.27;5.10;;;21.50;92.70;;;;;;5056514;28;20028;-83
2023/10/01 11:51:41;;;;;;;15.90;5.47;;;21.50;92.70;;;;;;5056670;28;20024;-83
2023/10/01 11:54:09;;;;;;;15.60;5.57;;;21.50;92.60;;;;;;5056496;28;20519;-84
2023/10/01 11:56:43;;;;;;;15.32;5.28;;;21.50;92.50;;;;;;5074329;28;20025;-83
2023/10/01 11:59:17;;;;;;;16.30;4.95;;;21.50;92.40;;;;;;5056396;28;20040;-84
2023/10/01 12:01:49;;;;;;;14.63;5.95;;;21.50;92.40;;;;;;5056537;28;20021;-83
2023/10/01 12:07:01;;;;;;;16.77;5.55;;;21.50;92.30;;;;;;5073920;28;20106;-84
2023/10/01 12:09:39;;;;;;;12.80;4.70;;;21.40;92.30;;;;;;5056326;28;20063;-84
2023/10/01 12:12:06;;;;;;;11.63;4.70;;;21.40;92.30;;;;;;5056343;28;20392;-83
2023/10/01 12:14:32;;;;;;;13.85;5.07;;;21.40;92.20;;;;;;5056261;28;20020;-84
2023/10/01 12:17:01;;;;;;;13.25;5.43;;;21.40;92.30;;;;;;5055761;28;20036;-84
2023/10/01 12:19:29;;;;;;;14.35;4.95;;;21.40;92.30;;;;;;5056094;28;20067;-84
2023/10/01 12:22:06;;;;;;;12.23;4.60;;;21.30;92.20;;;;;;5055955;28;20039;-84
2023/10/01 12:24:44;;;;;;;12.65;4.82;;;21.30;92.20;;;;;;5056120;28;20051;-84
2023/10/01 12:27:11;;;;;;;11.27;4.63;;;21.30;92.20;;;;;;5055888;28;20029;-83
2023/10/01 12:29:48;;;;;;;12.52;4.68;;;21.30;92.20;;;;;;5073909;28;20444;-83
2023/10/01 12:32:14;;;;;;;13.40;5.50;;;21.30;92.20;;;;;;5055851;28;20550;-84
2023/10/01 12:34:42;;;;;;;14.02;4.80;;;21.30;92.20;;;;;;5055801;28;20025;-83
2023/10/01 12:37:35;;;;;;;10.68;3.90;;;21.30;92.10;;;;;;5054927;28;20017;-84
2023/10/01 12:40:14;;;;;;;12.60;4.75;;;21.30;92.10;;;;;;5072566;28;20024;-83
2023/10/01 12:42:39;;;;;;;12.15;4.50;;;21.30;92.00;;;;;;5072792;28;20039;-83
2023/10/01 12:45:14;;;;;;;10.35;4.45;;;21.30;91.90;;;;;;5072708;28;20480;-83
2023/10/01 12:47:50;;;;;;;12.52;4.75;;;21.30;91.80;;;;;;5054642;28;20046;-83
2023/10/01 12:50:28;;;;;;;12.68;4.78;;;21.40;91.80;;;;;;5055016;28;20108;-83
2023/10/01 12:55:54;;;;;;;12.77;4.75;;;21.30;91.70;;;;;;5073244;28;20082;-84
2023/10/01 12:58:35;;;;;;;13.18;4.90;;;21.30;91.80;;;;;;5054905;28;20064;-84
2023/10/01 13:01:02;;;;;;;11.05;4.25;;;21.20;91.80;;;;;;5055608;28;20055;-83
2023/10/01 13:03:29;;;;;;;13.35;4.68;;;21.20;91.90;;;;;;5055427;28;20104;-83
2023/10/01 13:05:55;;;;;;;13.52;4.88;;;21.20;91.80;;;;;;5055183;28;20025;-84
2023/10/01 13:08:27;;;;;;;10.75;4.30;;;21.20;91.90;;;;;;5054830;28;20032;-83
2023/10/01 13:10:54;;;;;;;11.13;4.85;;;21.20;91.90;;;;;;5073208;28;20031;-84
2023/10/01 13:13:20;;;;;;;11.00;4.22;;;21.20;92.00;;;;;;5055268;28;20021;-84
2023/10/01 13:15:51;;;;;;;10.25;4.15;;;21.10;91.90;;;;;;5054662;28;20070;-83
2023/10/01 13:18:22;;;;;;;11.85;4.78;;;21.20;91.90;;;;;;5072868;28;20025;-83
2023/10/01 13:20:59;;;;;;;;;;;21.10;91.90;;;;;;5055607;28;20040;-84
2023/10/01 13:23:29;;;;;;;9.40;4.18;;;21.10;91.80;;;;;;5055053;28;19904;-84
2023/10/01 13:26:09;;;;;;;11.57;4.68;;;21.10;91.90;;;;;;5072858;28;20032;-83
2023/10/01 13:28:56;;;;;;;9.52;4.07;;;21.10;91.90;;;;;;5064373;28;20032;-83
2023/10/01 13:34:48;;;;;;;11.07;4.35;;;21.10;91.80;;;;;;5073497;28;20095;-83
2023/10/01 13:36:51;;;;;;;8.93;3.65;;;21.10;91.70;;;;;;5064794;28;20557;-82
2023/10/01 14:09:47;;;;;;;8.43;3.70;;;21.00;91.80;;;;;;5073122;28;20040;-82
2023/10/01 14:12:11;;;;;;;10.15;4.05;;;21.00;91.90;;;;;;5072747;28;20052;-83
2023/10/01 14:14:37;;;;;;;9.95;4.10;;;21.00;91.80;;;;;;5054813;28;20194;-83
2023/10/01 14:17:14;;;;;;;11.05;4.18;;;21.00;91.80;;;;;;5054856;28;20412;-82
2023/10/01 14:19:51;;;;;;;8.43;3.78;;;21.00;91.90;;;;;;5055162;28;20024;-82
2023/10/01 14:22:19;;;;;;;10.95;4.10;;;21.00;91.90;;;;;;5073144;28;20032;-82
2023/10/01 14:24:46;;;;;;;8.38;3.80;;;20.90;91.80;;;;;;5054579;28;20020;-82
2023/10/01 14:27:25;;;;;;;11.38;4.15;;;20.90;91.80;;;;;;5054911;28;20020;-82
2023/10/01 14:32:38;;;;;;;8.80;4.15;;;21.00;91.70;;;;;;5077067;28;20507;-82
2023/10/01 14:35:14;;;;;;;8.98;3.85;;;21.00;91.70;;;;;;5058766;28;20028;-82
2023/10/01 14:37:56;;;;;;;9.95;3.72;;;21.00;91.70;;;;;;5076388;28;20103;-82
2023/10/01 14:40:25;;;;;;;10.05;4.22;;;21.00;91.60;;;;;;5081238;28;20443;-82
2023/10/01 14:43:09;;;;;;;9.98;3.92;;;20.90;91.60;;;;;;5076035;28;20095;-82
2023/10/01 14:45:42;;;;;;;10.13;4.05;;;20.90;91.70;;;;;;5058064;28;20032;-83
2023/10/01 14:48:08;;;;;;;8.65;3.88;;;20.90;91.70;;;;;;5072531;28;20012;-83
2023/10/01 14:50:40;;;;;;;10.23;4.40;;;20.90;91.70;;;;;;5068768;28;20086;-82
2023/10/01 14:53:18;;;;;;;10.75;4.43;;;20.90;91.70;;;;;;5058118;28;20033;-82
2023/10/01 14:55:44;;;;;;;9.40;3.42;;;20.90;91.70;;;;;;5076096;28;20044;-82
2023/10/01 14:58:12;;;;;;;8.73;3.83;;;20.80;91.70;;;;;;5057629;28;20039;-81
2023/10/01 15:00:54;;;;;;;9.95;4.10;;;20.80;91.80;;;;;;5070415;28;20028;-82
2023/10/01 15:03:22;;;;;;;9.10;3.80;;;20.80;91.70;;;;;;5063359;28;20503;-82
2023/10/01 15:05:51;;;;;;;10.55;4.10;;;20.80;91.80;;;;;;5057631;28;20476;-81
2023/10/01 15:08:17;;;;;;;9.43;3.50;;;20.80;91.80;;;;;;5057544;28;20043;-82
2023/10/01 15:10:49;;;;;;;8.85;4.00;;;20.80;91.70;;;;;;5058092;28;20392;-82
2023/10/01 15:13:16;;;;;;;9.77;3.85;;;20.80;91.80;;;;;;5079992;28;20066;-84
2023/10/01 15:15:42;;;;;;;10.57;4.30;;;20.80;91.80;;;;;;5061808;28;20029;-82
2023/10/01 16:08:29;;;;;;;13.23;4.80;;;20.70;91.10;;;;;;5059433;28;20052;-86
2023/10/01 16:12:29;;;;;;;13.75;5.53;;;20.60;91.10;;;;;;5044364;28;20810;-85
2023/10/01 16:15:32;;;;;;;;;;;;;;;;;;;;;
2023/10/01 16:21:42;;;;;;;12.25;5.32;;;21.60;91.40;;;;;;4923579;28;20050;-82
2023/10/01 16:24:27;;;;;;;11.55;4.57;;;20.70;91.20;;;;;;4982616;28;20074;-83
2023/10/01 16:27:06;;;;;;;11.68;5.03;;;20.60;91.10;;;;;;4979279;28;20031;-84
2023/10/01 16:29:43;;;;;;;13.00;5.38;;;20.70;91.20;;;;;;4973754;28;20041;-84
2023/10/01 16:36:15;;;;;;;11.65;4.72;;;20.80;91.30;;;;;;5018923;28;20029;-84
2023/10/01 16:38:58;;;;;;;11.13;5.05;;;20.90;91.40;;;;;;5043104;28;20136;-84
2023/10/01 16:41:32;;;;;;;10.73;4.90;;;21.20;91.50;;;;;;5042288;28;20087;-84
2023/10/01 16:44:37;;;;;;;10.23;4.72;;;20.60;91.40;;;;;;5040702;28;20052;-85